createdAt,value
2022-07-30T00:00:40.126Z,101309.69
2022-07-30T00:03:08.520Z,101311.47
2022-07-30T00:05:36.933Z,101313.75
2022-07-30T00:08:05.876Z,101308.97
2022-07-30T00:10:34.219Z,101307.28
2022-07-30T00:13:02.586Z,101307.38
2022-07-30T00:15:32.347Z,101310.19
2022-07-30T00:18:00.836Z,101309.75
2022-07-30T00:20:29.421Z,101308.38
2022-07-30T00:22:58.080Z,101309.53
2022-07-30T00:25:26.892Z,101304.41
2022-07-30T00:27:55.238Z,101301.66
2022-07-30T00:30:23.903Z,101302.19
2022-07-30T00:32:53.705Z,101291.75
2022-07-30T00:35:22.103Z,101297.38
2022-07-30T00:37:50.506Z,101298.03
2022-07-30T00:40:19.443Z,101294.31
2022-07-30T00:42:49.013Z,101298.03
2022-07-30T00:45:19.650Z,101296.44
2022-07-30T00:47:48.134Z,101296.44
2022-07-30T00:50:18.396Z,101301.63
2022-07-30T00:52:47.214Z,101306.72
2022-07-30T00:55:16.843Z,101308.47
2022-07-30T00:57:46.135Z,101313.16
2022-07-30T01:00:17.693Z,101314.31
2022-07-30T01:02:46.153Z,101308.97
2022-07-30T01:05:15.166Z,101311.50
2022-07-30T01:07:45.209Z,101313.56
2022-07-30T01:10:15.415Z,101308.25
2022-07-30T01:12:45.163Z,101307.41
2022-07-30T01:15:14.324Z,101306.66
2022-07-30T01:17:42.689Z,101304.97
2022-07-30T01:20:17.499Z,101307.25
2022-07-30T01:23:00.602Z,101302.16
2022-07-30T01:25:54.486Z,101310.69
2022-07-30T01:28:29.988Z,101307.25
2022-07-30T01:31:00.119Z,101304.28
2022-07-30T01:33:31.908Z,101307.41
2022-07-30T01:36:02.424Z,101315.53
2022-07-30T01:38:34.743Z,101319.34
2022-07-30T01:41:06.582Z,101318.22
2022-07-30T01:43:36.853Z,101308.56
2022-07-30T01:46:06.121Z,101325.41
2022-07-30T01:48:40.708Z,101313.47
2022-07-30T01:51:10.372Z,101323.34
2022-07-30T01:53:41.945Z,101319.78
2022-07-30T01:56:16.650Z,101323.25
2022-07-30T01:58:47.699Z,101324.22
2022-07-30T02:01:16.219Z,101320.91
2022-07-30T02:03:44.935Z,101320.25
2022-07-30T02:06:20.617Z,101327.31
2022-07-30T02:08:56.206Z,101330.28
2022-07-30T02:11:43.846Z,101334.88
2022-07-30T02:14:20.324Z,101340.97
2022-07-30T02:16:56.176Z,101330.28
2022-07-30T02:19:32.793Z,101333.84
2022-07-30T02:22:17.104Z,101335.81
2022-07-30T02:24:49.176Z,101325.91
2022-07-30T02:27:25.246Z,101332.44
2022-07-30T02:29:55.556Z,101336.00
2022-07-30T02:32:26.788Z,101330.72
2022-07-30T02:35:02.742Z,101336.50
2022-07-30T02:37:42.766Z,101331.22
2022-07-30T02:40:16.648Z,101337.56
2022-07-30T02:42:50.619Z,101346.22
2022-07-30T02:45:20.385Z,101342.34
2022-07-30T02:47:55.745Z,101336.00
2022-07-30T02:50:26.461Z,101339.66
2022-07-30T02:52:57.277Z,101343.94
2022-07-30T02:55:27.675Z,101336.72
2022-07-30T02:57:58.726Z,101341.72
2022-07-30T03:00:28.404Z,101335.72
2022-07-30T03:02:58.843Z,101338.28
2022-07-30T03:05:31.137Z,101339.41
2022-07-30T03:08:01.198Z,101338.41
2022-07-30T03:10:31.941Z,101338.38
2022-07-30T03:13:04.346Z,101344.91
2022-07-30T03:15:39.506Z,101341.16
2022-07-30T03:18:13.257Z,101336.81
2022-07-30T03:20:42.158Z,101337.75
2022-07-30T03:23:13.577Z,101338.50
2022-07-30T03:25:43.816Z,101346.66
2022-07-30T03:28:15.394Z,101337.78
2022-07-30T03:30:45.146Z,101342.34
2022-07-30T03:33:15.883Z,101344.00
2022-07-30T03:35:44.790Z,101351.94
2022-07-30T03:38:14.403Z,101353.75
2022-07-30T03:40:44.297Z,101361.16
2022-07-30T03:43:18.534Z,101353.66
2022-07-30T03:46:04.129Z,101360.34
2022-07-30T03:48:34.613Z,101361.09
2022-07-30T03:51:05.051Z,101364.25
2022-07-30T03:53:34.341Z,101367.88
2022-07-30T03:56:03.286Z,101362.50
2022-07-30T03:58:35.987Z,101363.81
2022-07-30T04:01:04.996Z,101364.66
2022-07-30T04:03:36.412Z,101363.22
2022-07-30T04:06:05.053Z,101365.25
2022-07-30T04:08:33.423Z,101374.56
2022-07-30T04:11:01.831Z,101375.72
2022-07-30T04:13:30.314Z,101367.53
2022-07-30T04:16:38.796Z,101388.88
2022-07-30T04:18:59.715Z,101381.81
2022-07-30T04:21:29.999Z,101391.91
2022-07-30T04:24:04.794Z,101391.03
2022-07-30T04:26:36.924Z,101387.19
2022-07-30T04:29:09.306Z,101399.44
2022-07-30T04:31:44.272Z,101399.38
2022-07-30T04:34:15.906Z,101403.59
2022-07-30T04:36:44.900Z,101404.81
2022-07-30T04:39:15.906Z,101406.22
2022-07-30T04:41:49.328Z,101406.88
2022-07-30T04:44:20.115Z,101406.16
2022-07-30T04:46:49.918Z,101411.00
2022-07-30T04:49:20.582Z,101413.75
2022-07-30T04:51:50.133Z,101418.06
2022-07-30T04:54:21.749Z,101412.22
2022-07-30T04:56:53.491Z,101418.84
2022-07-30T04:59:29.641Z,101423.13
2022-07-30T05:02:00.674Z,101417.78
2022-07-30T05:04:30.364Z,101419.75
2022-07-30T05:07:00.416Z,101432.25
2022-07-30T05:09:30.009Z,101441.44
2022-07-30T05:11:59.436Z,101431.81
2022-07-30T05:14:28.704Z,101429.94
2022-07-30T05:16:59.172Z,101439.00
2022-07-30T05:19:27.803Z,101439.44
2022-07-30T05:21:56.353Z,101441.81
2022-07-30T05:24:24.846Z,101434.47
2022-07-30T05:26:53.401Z,101439.44
2022-07-30T05:29:21.806Z,101439.75
2022-07-30T05:31:51.731Z,101437.53
2022-07-30T05:34:21.860Z,101448.16
2022-07-30T05:36:51.129Z,101448.19
2022-07-30T05:39:19.816Z,101448.41
2022-07-30T05:41:48.248Z,101455.47
2022-07-30T05:46:50.659Z,101456.59
2022-07-30T05:49:19.305Z,101459.06
2022-07-30T05:51:50.412Z,101457.53
2022-07-30T05:54:18.861Z,101464.84
2022-07-30T05:56:47.224Z,101470.59
2022-07-30T05:59:15.545Z,101470.84
2022-07-30T06:01:43.923Z,101474.56
2022-07-30T06:04:12.535Z,101468.00
2022-07-30T06:06:40.910Z,101468.34
2022-07-30T06:09:10.664Z,101468.94
2022-07-30T06:11:39.137Z,101474.53
2022-07-30T06:14:07.521Z,101471.19
2022-07-30T06:16:35.896Z,101476.75
2022-07-30T06:19:04.587Z,101474.88
2022-07-30T06:22:05.592Z,101478.75
2022-07-30T06:24:22.624Z,101468.03
2022-07-30T06:26:51.123Z,101474.28
2022-07-30T06:29:20.507Z,101484.75
2022-07-30T06:31:48.880Z,101495.03
2022-07-30T06:34:17.232Z,101493.72
2022-07-30T06:36:45.590Z,101487.38
2022-07-30T06:39:14.069Z,101494.59
2022-07-30T06:41:44.837Z,101500.25
2022-07-30T06:44:13.198Z,101497.41
2022-07-30T06:46:41.619Z,101502.88
2022-07-30T06:49:11.492Z,101505.03
2022-07-30T06:51:39.927Z,101506.97
2022-07-30T06:54:08.822Z,101504.97
2022-07-30T06:56:37.375Z,101513.34
2022-07-30T06:59:07.076Z,101510.59
2022-07-30T07:01:35.574Z,101509.00
2022-07-30T07:04:04.396Z,101510.97
2022-07-30T07:06:32.937Z,101512.09
2022-07-30T07:09:01.706Z,101513.72
2022-07-30T07:11:30.090Z,101513.69
2022-07-30T07:14:04.063Z,101516.31
2022-07-30T07:16:34.464Z,101510.75
2022-07-30T07:19:02.818Z,101513.31
2022-07-30T07:21:31.178Z,101518.44
2022-07-30T07:24:00.591Z,101511.09
2022-07-30T07:26:29.015Z,101518.50
2022-07-30T07:28:57.359Z,101508.69
2022-07-30T07:32:06.040Z,101514.50
2022-07-30T07:34:17.268Z,101513.25
2022-07-30T07:36:45.684Z,101516.84
2022-07-30T07:39:14.910Z,101517.47
2022-07-30T07:41:48.776Z,101519.53
2022-07-30T07:44:17.896Z,101519.19
2022-07-30T07:46:46.272Z,101516.13
2022-07-30T07:49:16.165Z,101519.47
2022-07-30T07:51:47.509Z,101514.56
2022-07-30T07:54:22.252Z,101512.97
2022-07-30T07:56:52.854Z,101517.25
2022-07-30T07:59:21.740Z,101517.81
2022-07-30T08:01:51.319Z,101521.09
2022-07-30T08:04:21.165Z,101517.06
2022-07-30T08:06:49.542Z,101508.59
2022-07-30T08:09:17.940Z,101512.03
2022-07-30T08:11:46.352Z,101506.44
2022-07-30T08:14:14.711Z,101512.19
2022-07-30T08:16:43.239Z,101516.38
2022-07-30T08:19:12.207Z,101517.91
2022-07-30T08:21:41.934Z,101514.00
2022-07-30T08:24:10.409Z,101510.06
2022-07-30T08:26:38.761Z,101508.22
2022-07-30T08:29:07.133Z,101502.72
2022-07-30T08:31:35.494Z,101504.75
2022-07-30T08:34:03.829Z,101504.13
2022-07-30T08:36:32.176Z,101506.72
2022-07-30T08:39:01.960Z,101505.63
2022-07-30T08:41:30.882Z,101513.41
2022-07-30T08:44:02.372Z,101513.81
2022-07-30T08:46:34.601Z,101522.06
2022-07-30T08:49:09.131Z,101523.81
2022-07-30T08:51:40.152Z,101518.41
2022-07-30T08:54:09.985Z,101519.03
2022-07-30T08:56:38.878Z,101512.31
2022-07-30T08:59:07.352Z,101516.00
2022-07-30T09:01:35.711Z,101515.72
2022-07-30T09:06:33.968Z,101512.25
2022-07-30T09:09:03.305Z,101508.38
2022-07-30T09:11:36.174Z,101519.47
2022-07-30T09:14:12.113Z,101519.38
2022-07-30T09:16:41.821Z,101528.19
2022-07-30T09:19:16.217Z,101523.56
2022-07-30T09:21:55.928Z,101515.78
2022-07-30T09:24:24.340Z,101518.66
2022-07-30T09:27:00.166Z,101518.66
2022-07-30T09:29:31.133Z,101507.84
2022-07-30T09:32:01.795Z,101503.44
2022-07-30T09:34:33.259Z,101509.78
2022-07-30T09:37:04.798Z,101516.59
2022-07-30T09:39:35.448Z,101509.38
2022-07-30T09:42:19.570Z,101519.88
2022-07-30T09:44:48.381Z,101516.50
2022-07-30T09:47:33.223Z,101507.69
2022-07-30T09:50:07.873Z,101514.72
2022-07-30T09:52:37.111Z,101512.56
2022-07-30T09:55:14.233Z,101515.84
2022-07-30T09:57:58.732Z,101524.38
2022-07-30T10:00:30.085Z,101524.34
2022-07-30T10:03:00.509Z,101523.59
2022-07-30T10:05:50.046Z,101520.75
2022-07-30T10:08:21.781Z,101516.16
2022-07-30T10:10:50.742Z,101514.81
2022-07-30T10:13:22.065Z,101514.88
2022-07-30T10:15:51.392Z,101521.63
2022-07-30T10:18:19.787Z,101522.13
2022-07-30T10:20:49.310Z,101521.44
2022-07-30T10:23:20.284Z,101511.66
2022-07-30T10:25:58.064Z,101503.38
2022-07-30T10:28:31.423Z,101519.72
2022-07-30T10:31:47.419Z,101517.88
2022-07-30T10:33:54.371Z,101516.97
2022-07-30T10:36:24.858Z,101523.31
2022-07-30T10:38:55.125Z,101518.31
2022-07-30T10:41:43.131Z,101529.25
2022-07-30T10:44:45.009Z,101530.28
2022-07-30T10:47:18.600Z,101528.00
2022-07-30T10:50:11.851Z,101527.91
2022-07-30T10:52:52.339Z,101517.31
2022-07-30T10:55:37.534Z,101521.13
2022-07-30T10:58:10.047Z,101513.59
2022-07-30T11:01:00.305Z,101511.66
2022-07-30T11:03:40.144Z,101511.44
2022-07-30T11:06:30.472Z,101502.69
2022-07-30T11:08:59.186Z,101510.72
2022-07-30T11:12:16.123Z,101504.53
2022-07-30T11:15:06.659Z,101511.88
2022-07-30T11:18:05.905Z,101506.06
2022-07-30T11:20:41.165Z,101508.88
2022-07-30T11:23:40.605Z,101506.28
2022-07-30T11:26:14.315Z,101493.19
2022-07-30T11:28:49.500Z,101503.38
2022-07-30T11:32:07.422Z,101514.41
2022-07-30T11:34:30.975Z,101500.25
2022-07-30T11:37:22.164Z,101500.72
2022-07-30T11:40:14.174Z,101506.09
2022-07-30T11:42:45.009Z,101500.00
2022-07-30T11:45:30.958Z,101508.09
2022-07-30T11:48:01.316Z,101493.50
2022-07-30T11:50:33.761Z,101494.34
2022-07-30T11:53:04.800Z,101497.47
2022-07-30T11:55:36.010Z,101497.88
2022-07-30T11:58:07.869Z,101490.50
2022-07-30T12:00:39.803Z,101498.06
2022-07-30T12:03:16.865Z,101509.28
2022-07-30T12:05:51.257Z,101498.88
2022-07-30T12:08:36.029Z,101497.94
2022-07-30T12:11:05.065Z,101502.03
2022-07-30T12:13:44.810Z,101495.16
2022-07-30T12:16:17.626Z,101487.78
2022-07-30T12:18:47.341Z,101485.63
2022-07-30T12:21:17.668Z,101483.41
2022-07-30T12:23:56.586Z,101485.97
2022-07-30T12:26:27.359Z,101487.38
2022-07-30T12:28:58.608Z,101481.50
2022-07-30T12:31:27.617Z,101473.41
2022-07-30T12:33:58.267Z,101477.19
2022-07-30T12:36:33.898Z,101484.38
2022-07-30T12:39:06.670Z,101480.03
2022-07-30T12:41:46.311Z,101485.13
2022-07-30T12:44:36.514Z,101473.31
2022-07-30T12:47:06.228Z,101478.41
2022-07-30T12:49:37.734Z,101481.97
2022-07-30T12:52:29.313Z,101478.81
2022-07-30T12:55:02.539Z,101481.69
2022-07-30T12:58:01.724Z,101479.63
2022-07-30T13:00:51.115Z,101473.94
2022-07-30T13:03:24.700Z,101479.75
2022-07-30T13:05:55.941Z,101473.28
2022-07-30T13:08:54.570Z,101479.09
2022-07-30T13:11:25.661Z,101476.00
2022-07-30T13:13:54.706Z,101474.25
2022-07-30T13:16:23.151Z,101483.28
2022-07-30T13:18:51.457Z,101485.13
2022-07-30T13:21:19.788Z,101480.78
2022-07-30T13:23:48.131Z,101487.19
2022-07-30T13:26:17.830Z,101479.00
2022-07-30T13:28:47.083Z,101482.19
2022-07-30T13:31:15.700Z,101483.75
2022-07-30T13:33:44.592Z,101475.78
2022-07-30T13:36:12.921Z,101479.75
2022-07-30T13:38:41.289Z,101477.78
2022-07-30T13:41:09.818Z,101471.75
2022-07-30T13:43:41.532Z,101475.59
2022-07-30T13:46:09.876Z,101474.34
2022-07-30T13:48:38.860Z,101479.34
2022-07-30T13:51:07.456Z,101477.00
2022-07-30T13:53:35.824Z,101475.88
2022-07-30T13:56:04.284Z,101467.41
2022-07-30T13:58:36.126Z,101473.47
2022-07-30T14:01:07.625Z,101470.50
2022-07-30T14:03:36.512Z,101467.63
2022-07-30T14:06:10.065Z,101462.22
2022-07-30T14:08:39.856Z,101457.94
2022-07-30T14:11:08.321Z,101452.44
2022-07-30T14:13:36.782Z,101451.44
2022-07-30T14:16:22.583Z,101458.22
2022-07-30T14:18:55.676Z,101456.09
2022-07-30T14:21:24.224Z,101454.97
2022-07-30T14:23:52.582Z,101448.75
2022-07-30T14:26:20.973Z,101450.50
2022-07-30T14:28:49.321Z,101451.16
2022-07-30T14:31:19.014Z,101444.25
2022-07-30T14:33:47.384Z,101437.03
2022-07-30T14:36:15.836Z,101441.22
2022-07-30T14:38:44.442Z,101435.56
2022-07-30T14:41:12.807Z,101446.66
2022-07-30T14:43:41.164Z,101440.34
2022-07-30T14:46:09.486Z,101441.22
2022-07-30T14:48:39.245Z,101439.66
2022-07-30T14:51:17.670Z,101437.59
2022-07-30T14:53:48.120Z,101436.97
2022-07-30T14:56:17.579Z,101439.47
2022-07-30T14:58:46.335Z,101440.00
2022-07-30T15:01:15.686Z,101441.91
2022-07-30T15:03:47.007Z,101428.75
2022-07-30T15:06:16.066Z,101436.78
2022-07-30T15:08:46.102Z,101440.13
2022-07-30T15:11:14.717Z,101438.06
2022-07-30T15:13:49.677Z,101435.66
2022-07-30T15:16:20.235Z,101426.78
2022-07-30T15:18:50.201Z,101431.78
2022-07-30T15:21:18.751Z,101427.44
2022-07-30T15:23:47.176Z,101420.44
2022-07-30T15:26:15.532Z,101426.13
2022-07-30T15:28:43.859Z,101426.94
2022-07-30T15:31:12.413Z,101430.09
2022-07-30T15:33:43.216Z,101422.25
2022-07-30T15:36:14.091Z,101432.59
2022-07-30T15:38:43.374Z,101430.41
2022-07-30T15:41:13.778Z,101434.56
2022-07-30T15:43:42.380Z,101434.47
2022-07-30T15:46:10.795Z,101429.09
2022-07-30T15:48:39.167Z,101420.34
2022-07-30T15:51:08.319Z,101429.72
2022-07-30T15:53:38.070Z,101425.53
2022-07-30T15:56:06.825Z,101423.88
2022-07-30T15:58:35.737Z,101426.78
2022-07-30T16:01:06.405Z,101420.19
2022-07-30T16:03:34.736Z,101422.31
2022-07-30T16:06:03.091Z,101431.84
2022-07-30T16:08:31.478Z,101428.59
2022-07-30T16:11:03.839Z,101431.75
2022-07-30T16:13:32.308Z,101435.03
2022-07-30T16:16:00.701Z,101429.84
2022-07-30T16:18:29.075Z,101433.19
2022-07-30T16:20:58.835Z,101431.06
2022-07-30T16:23:27.161Z,101430.06
2022-07-30T16:25:55.526Z,101436.91
2022-07-30T16:28:25.308Z,101440.28
2022-07-30T16:30:54.036Z,101432.69
2022-07-30T16:33:22.420Z,101423.88
2022-07-30T16:35:51.053Z,101428.66
2022-07-30T16:38:20.257Z,101418.66
2022-07-30T16:40:48.657Z,101421.53
2022-07-30T16:43:19.694Z,101419.38
2022-07-30T16:45:50.096Z,101423.22
2022-07-30T16:48:18.438Z,101429.88
2022-07-30T16:50:47.252Z,101425.47
2022-07-30T16:53:15.645Z,101423.00
2022-07-30T16:55:44.317Z,101426.88
2022-07-30T16:58:13.120Z,101415.50
2022-07-30T17:00:41.856Z,101417.59
2022-07-30T17:03:11.875Z,101415.75
2022-07-30T17:05:46.684Z,101415.25
2022-07-30T17:08:15.570Z,101412.56
2022-07-30T17:10:47.850Z,101413.47
2022-07-30T17:13:16.708Z,101412.59
2022-07-30T17:15:46.894Z,101420.78
2022-07-30T17:18:17.531Z,101415.97
2022-07-30T17:20:46.418Z,101411.91
2022-07-30T17:23:14.999Z,101416.13
2022-07-30T17:25:43.420Z,101417.53
2022-07-30T17:28:11.759Z,101422.75
2022-07-30T17:30:40.151Z,101421.06
2022-07-30T17:33:08.575Z,101425.56
2022-07-30T17:35:38.847Z,101430.31
2022-07-30T17:38:07.386Z,101426.88
2022-07-30T17:40:35.847Z,101430.41
2022-07-30T17:43:04.827Z,101428.44
2022-07-30T17:45:34.745Z,101425.75
2022-07-30T17:48:03.281Z,101432.44
2022-07-30T17:50:32.625Z,101435.50
2022-07-30T17:53:03.728Z,101435.19
2022-07-30T17:55:34.986Z,101430.56
2022-07-30T17:58:03.979Z,101437.00
2022-07-30T18:00:32.675Z,101440.91
2022-07-30T18:03:01.045Z,101442.03
2022-07-30T18:05:29.648Z,101439.63
2022-07-30T18:07:58.024Z,101428.59
2022-07-30T18:10:27.732Z,101438.34
2022-07-30T18:12:56.278Z,101445.56
2022-07-30T18:15:24.638Z,101428.88
2022-07-30T18:17:53.092Z,101433.78
2022-07-30T18:20:21.503Z,101436.25
2022-07-30T18:22:51.732Z,101444.44
2022-07-30T18:25:20.473Z,101444.44
2022-07-30T18:27:53.133Z,101440.84
2022-07-30T18:30:21.684Z,101454.53
2022-07-30T18:32:50.505Z,101446.97
2022-07-30T18:35:19.169Z,101441.91
2022-07-30T18:37:48.316Z,101439.63
2022-07-30T18:40:23.747Z,101445.88
2022-07-30T18:42:53.886Z,101442.69
2022-07-30T18:45:22.846Z,101448.13
2022-07-30T18:47:51.217Z,101451.47
2022-07-30T18:50:20.215Z,101451.84
2022-07-30T18:52:48.932Z,101453.81
2022-07-30T18:55:18.034Z,101455.22
2022-07-30T18:57:46.359Z,101452.34
2022-07-30T19:00:32.757Z,101455.00
2022-07-30T19:03:04.581Z,101449.22
2022-07-30T19:05:33.074Z,101451.00
2022-07-30T19:08:01.410Z,101448.41
2022-07-30T19:10:29.902Z,101449.09
2022-07-30T19:12:58.550Z,101448.56
2022-07-30T19:15:29.505Z,101453.34
2022-07-30T19:17:58.742Z,101451.75
2022-07-30T19:20:27.577Z,101445.94
2022-07-30T19:23:03.101Z,101452.25
2022-07-30T19:25:33.570Z,101449.94
2022-07-30T19:28:02.447Z,101452.47
2022-07-30T19:30:33.620Z,101453.59
2022-07-30T19:33:05.969Z,101444.25
2022-07-30T19:35:34.676Z,101447.22
2022-07-30T19:38:03.220Z,101452.41
2022-07-30T19:40:32.079Z,101456.06
2022-07-30T19:43:06.588Z,101450.78
2022-07-30T19:45:47.270Z,101458.63
2022-07-30T19:48:29.045Z,101459.94
2022-07-30T19:51:01.551Z,101459.75
2022-07-30T19:53:31.623Z,101460.09
2022-07-30T19:56:08.391Z,101459.28
2022-07-30T19:58:40.321Z,101460.09
2022-07-30T20:01:12.290Z,101462.13
2022-07-30T20:03:40.997Z,101462.44
2022-07-30T20:06:10.283Z,101464.78
2022-07-30T20:08:44.889Z,101462.78
2022-07-30T20:11:34.834Z,101460.78
2022-07-30T20:14:03.193Z,101457.94
2022-07-30T20:16:33.114Z,101458.25
2022-07-30T20:19:03.326Z,101463.09
2022-07-30T20:22:07.267Z,101461.44
2022-07-30T20:24:22.019Z,101461.56
2022-07-30T20:26:50.491Z,101461.78
2022-07-30T20:29:20.624Z,101464.13
2022-07-30T20:31:50.690Z,101465.47
2022-07-30T20:34:23.427Z,101468.75
2022-07-30T20:36:52.661Z,101468.78
2022-07-30T20:39:23.613Z,101472.75
2022-07-30T20:42:07.694Z,101470.47
2022-07-30T20:44:37.975Z,101471.03
2022-07-30T20:47:08.809Z,101470.22
2022-07-30T20:49:38.341Z,101469.41
2022-07-30T20:52:10.174Z,101467.38
2022-07-30T20:54:45.139Z,101464.53
2022-07-30T20:57:15.484Z,101468.50
2022-07-30T20:59:44.416Z,101470.81
2022-07-30T21:02:15.072Z,101473.03
2022-07-30T21:04:46.456Z,101466.06
2022-07-30T21:07:14.963Z,101463.22
2022-07-30T21:09:51.998Z,101466.28
2022-07-30T21:12:32.503Z,101470.91
2022-07-30T21:15:01.666Z,101473.91
2022-07-30T21:17:31.436Z,101466.97
2022-07-30T21:20:01.172Z,101468.31
2022-07-30T21:22:29.586Z,101464.50
2022-07-30T21:24:57.949Z,101459.19
2022-07-30T21:27:29.884Z,101461.16
2022-07-30T21:29:58.766Z,101452.16
2022-07-30T21:32:28.305Z,101458.66
2022-07-30T21:34:58.012Z,101453.66
2022-07-30T21:37:36.598Z,101451.16
2022-07-30T21:40:19.116Z,101456.81
2022-07-30T21:42:53.197Z,101439.94
2022-07-30T21:45:21.600Z,101450.13
2022-07-30T21:47:51.310Z,101447.16
2022-07-30T21:50:21.651Z,101446.97
2022-07-30T21:52:50.123Z,101445.66
2022-07-30T21:55:19.929Z,101445.16
2022-07-30T21:57:49.837Z,101445.88
2022-07-30T22:00:32.260Z,101438.88
2022-07-30T22:03:00.610Z,101438.81
2022-07-30T22:05:38.595Z,101447.84
2022-07-30T22:08:20.068Z,101449.56
2022-07-30T22:10:49.732Z,101443.81
2022-07-30T22:13:22.402Z,101443.72
2022-07-30T22:15:51.135Z,101446.69
2022-07-30T22:18:21.715Z,101448.47
2022-07-30T22:20:54.585Z,101433.28
2022-07-30T22:23:23.668Z,101437.81
2022-07-30T22:25:53.892Z,101431.59
2022-07-30T22:28:28.777Z,101429.38
2022-07-30T22:30:57.228Z,101425.56
2022-07-30T22:33:25.675Z,101428.22
2022-07-30T22:35:56.598Z,101423.13
2022-07-30T22:38:24.897Z,101424.53
2022-07-30T22:40:53.243Z,101439.38
2022-07-30T22:43:21.688Z,101431.59
2022-07-30T22:45:50.265Z,101427.25
2022-07-30T22:48:20.560Z,101432.97
2022-07-30T22:50:56.984Z,101434.97
2022-07-30T22:54:10.841Z,101430.66
2022-07-30T22:56:18.537Z,101427.34
2022-07-30T22:58:48.674Z,101431.22
2022-07-30T23:01:17.935Z,101422.19
2022-07-30T23:03:46.268Z,101421.50
2022-07-30T23:06:17.920Z,101427.28
2022-07-30T23:08:49.208Z,101425.34
2022-07-30T23:11:17.817Z,101427.78
2022-07-30T23:13:46.148Z,101431.88
2022-07-30T23:16:14.524Z,101428.56
2022-07-30T23:18:42.861Z,101433.56
2022-07-30T23:21:11.290Z,101428.56
2022-07-30T23:23:40.988Z,101424.91
2022-07-30T23:26:09.537Z,101422.38
2022-07-30T23:28:38.640Z,101414.06
2022-07-30T23:31:07.145Z,101418.06
2022-07-30T23:33:35.481Z,101416.91
2022-07-30T23:36:06.839Z,101420.38
2022-07-30T23:38:35.595Z,101407.41
2022-07-30T23:41:06.825Z,101402.75
2022-07-30T23:43:35.742Z,101401.88
2022-07-30T23:46:05.132Z,101402.00
2022-07-30T23:48:38.140Z,101398.59
2022-07-30T23:51:06.690Z,101397.16
2022-07-30T23:53:35.043Z,101393.22
2022-07-30T23:56:05.374Z,101397.97
2022-07-30T23:58:34.323Z,101395.97
